KRWI

Rocky Mount-Wilson Regional Airport

Rocky Mount, North Carolina, USA
METAR KRWI 220504Z AUTO 00000KT 10SM FEW055 SCT075 BKN100 24/23 A2978 RMK AO2 LTG DSNT SE AND S T02440233
Observed Flight Rules
Jun-22 @ 05:04 UTC (25 minutes ago) Visual Flight Rules
Visibility Clouds
10 miles
  • Few at 5,500' AGL
  • Scattered at 7,500' AGL
  • Broken at 10,000' AGL
Temperatures Readings
Current 24°C / 75°F
Dewpoint 23°C / 73°F
Humidity 94%
Altimeter 29.78" Hg
Pressure 1008 hPa
Elevation 47
METAR KRWI 220504Z AUTO 00000KT 10SM FEW055 SCT075 BKN100 24/23 A2978 RMK AO2 LTG DSNT SE AND S T02440233
Observed Flight Rules
Jun-22 @ 05:04 UTC
(25 minutes ago)
VFR
Clouds
  • Few at 5,500' AGL
  • Scattered at 7,500' AGL
  • Broken at 10,000' AGL
Temperature Dewpoint
24°C / 75°F 23°C / 73°F
Humidity Altimeter Pressure
94% 29.78" Hg 1008 hPa